Time;durP1;ratioP1;P1;durP2;ratioP2;P2;SDS_P1;SDS_P2;PMS_P1;PMS_P2;Temp;Humidity;BMP_temperature;BMP_pressure;BME280_temperature;BME280_humidity;BME280_pressure;Samples;Min_cycle;Max_cycle;Signal;HPM_P1;HPM_P2
2022/04/23 00:01:42;;;;;;;7.50;6.80;;;11.10;99.90;;;;;;5034594;28;20174;-72
2022/04/23 00:04:11;;;;;;;11.45;7.03;;;11.10;99.90;;;;;;5035439;28;20178;-73
2022/04/23 00:06:38;;;;;;;9.32;8.20;;;11.10;99.90;;;;;;5035524;28;20201;-74
2022/04/23 00:09:04;;;;;;;9.40;8.40;;;11.00;99.90;;;;;;5035873;28;20170;-73
2022/04/23 00:11:29;;;;;;;6.90;5.87;;;11.00;99.90;;;;;;5035865;28;20224;-73
2022/04/23 00:13:56;;;;;;;8.60;7.30;;;11.00;99.90;;;;;;5035314;28;20447;-72
2022/04/23 00:16:34;;;;;;;8.27;5.72;;;11.00;99.90;;;;;;5035398;28;20970;-73
2022/04/23 00:19:02;;;;;;;8.63;7.00;;;10.90;99.90;;;;;;5035683;28;20177;-72
2022/04/23 00:21:36;;;;;;;8.75;7.00;;;10.90;99.90;;;;;;5035468;28;20185;-70
2022/04/23 00:24:03;;;;;;;8.05;7.25;;;10.80;99.90;;;;;;5034937;28;20170;-73
2022/04/23 00:26:29;;;;;;;7.95;6.55;;;10.80;99.90;;;;;;5034164;28;20189;-75
2022/04/23 00:28:57;;;;;;;6.83;6.13;;;10.80;99.90;;;;;;5035211;28;20636;-74
2022/04/23 00:31:30;;;;;;;10.15;7.38;;;10.80;99.90;;;;;;5035271;28;20170;-73
2022/04/23 00:33:59;;;;;;;8.23;7.13;;;10.80;99.90;;;;;;5034925;28;20197;-74
2022/04/23 00:36:28;;;;;;;10.30;8.02;;;10.80;99.90;;;;;;5034560;28;20228;-72
2022/04/23 00:38:54;;;;;;;10.02;8.00;;;10.80;99.90;;;;;;5035025;28;20170;-74
2022/04/23 00:44:08;;;;;;;7.53;6.43;;;10.80;99.90;;;;;;5034913;28;20173;-74
2022/04/23 00:46:36;;;;;;;9.53;6.97;;;10.70;99.90;;;;;;5035070;28;20190;-72
2022/04/23 00:49:03;;;;;;;7.50;6.72;;;10.70;99.90;;;;;;5034973;28;20249;-71
2022/04/23 00:51:30;;;;;;;10.43;7.53;;;10.60;99.90;;;;;;5033248;28;20177;-73
2022/04/23 00:54:01;;;;;;;11.65;7.25;;;10.60;99.90;;;;;;5034477;28;20187;-72
2022/04/23 00:56:27;;;;;;;10.82;7.40;;;10.50;99.90;;;;;;5034529;28;20740;-73
2022/04/23 00:58:56;;;;;;;6.93;6.32;;;10.50;99.90;;;;;;5034890;28;20505;-72
2022/04/23 01:01:23;;;;;;;6.55;5.80;;;10.50;99.90;;;;;;5034705;28;20162;-74
2022/04/23 01:03:50;;;;;;;8.40;7.55;;;10.40;99.90;;;;;;5034063;28;20185;-74
2022/04/23 01:06:19;;;;;;;6.47;5.97;;;10.40;99.90;;;;;;5034360;28;20186;-71
2022/04/23 01:08:47;;;;;;;8.75;7.10;;;10.30;99.90;;;;;;5033141;28;20177;-71
2022/04/23 01:11:13;;;;;;;8.15;7.30;;;10.20;99.90;;;;;;5034112;28;20522;-74
2022/04/23 01:13:42;;;;;;;10.40;5.97;;;10.20;99.90;;;;;;5033982;28;20170;-75
2022/04/23 01:16:08;;;;;;;9.70;7.13;;;10.20;99.90;;;;;;5014514;28;20558;-73
2022/04/23 01:18:36;;;;;;;7.77;6.93;;;10.20;99.90;;;;;;5014607;28;20177;-74
2022/04/23 01:21:04;;;;;;;6.45;5.15;;;10.20;99.90;;;;;;5014580;28;20868;-72
2022/04/23 01:23:30;;;;;;;8.27;6.95;;;10.20;99.90;;;;;;5014320;28;20475;-74
2022/04/23 01:25:57;;;;;;;9.23;6.32;;;10.20;99.90;;;;;;5014457;28;20206;-73
2022/04/23 01:28:25;;;;;;;8.50;5.43;;;10.10;99.90;;;;;;5014899;28;20201;-71
2022/04/23 01:30:57;;;;;;;6.85;6.15;;;10.10;99.90;;;;;;5014627;28;20166;-74
2022/04/23 01:33:22;;;;;;;8.25;6.28;;;10.10;99.90;;;;;;5012772;28;20174;-74
2022/04/23 01:35:49;;;;;;;10.00;6.07;;;10.10;99.90;;;;;;5014094;28;20523;-74
2022/04/23 01:38:14;;;;;;;7.10;6.40;;;10.10;99.90;;;;;;5014483;28;20408;-71
2022/04/23 01:40:40;;;;;;;9.63;7.17;;;10.00;99.90;;;;;;5014478;28;20170;-71
2022/04/23 01:43:08;;;;;;;8.25;7.00;;;9.90;99.90;;;;;;5015143;28;20170;-72
2022/04/23 01:45:34;;;;;;;10.75;6.55;;;9.90;99.90;;;;;;5034018;28;20194;-74
2022/04/23 01:48:00;;;;;;;8.95;6.78;;;9.80;99.90;;;;;;5033967;28;20553;-74
2022/04/23 01:50:26;;;;;;;8.40;6.87;;;9.80;99.90;;;;;;5033991;28;20248;-72
2022/04/23 01:52:51;;;;;;;7.40;6.70;;;9.70;99.90;;;;;;5033840;28;20172;-71
2022/04/23 01:55:17;;;;;;;7.90;6.97;;;9.60;99.90;;;;;;5033627;28;20193;-70
2022/04/23 01:57:43;;;;;;;7.00;6.30;;;9.60;99.90;;;;;;5033864;28;20205;-75
2022/04/23 02:00:11;;;;;;;9.40;7.17;;;9.60;99.90;;;;;;5033432;28;20181;-74
2022/04/23 02:02:39;;;;;;;8.50;7.60;;;9.60;99.90;;;;;;5033694;28;20166;-74
2022/04/23 02:05:06;;;;;;;10.35;6.53;;;9.60;99.90;;;;;;5033229;28;20256;-72
2022/04/23 02:07:37;;;;;;;4.90;4.45;;;9.50;99.90;;;;;;5033855;28;20174;-73
2022/04/23 02:10:04;;;;;;;7.45;5.88;;;9.60;99.90;;;;;;5033639;28;20176;-74
2022/04/23 02:12:30;;;;;;;5.35;4.85;;;9.60;99.90;;;;;;5032524;28;20209;-74
2022/04/23 02:14:55;;;;;;;7.73;5.40;;;9.60;99.90;;;;;;5032733;28;20206;-74
2022/04/23 02:17:21;;;;;;;8.70;6.30;;;9.50;99.90;;;;;;5033486;28;20233;-73
2022/04/23 02:19:46;;;;;;;5.77;5.17;;;9.60;99.90;;;;;;5033317;28;20224;-74
2022/04/23 02:22:12;;;;;;;7.00;5.63;;;9.60;99.90;;;;;;5033262;28;20313;-69
2022/04/23 02:24:38;;;;;;;5.00;4.50;;;9.60;99.90;;;;;;5032758;28;20169;-70
2022/04/23 02:27:03;;;;;;;6.10;5.50;;;9.50;99.90;;;;;;5033013;28;20176;-69
2022/04/23 02:29:29;;;;;;;5.40;4.90;;;9.50;99.90;;;;;;5032861;28;20192;-74
2022/04/23 02:31:57;;;;;;;7.50;6.27;;;9.40;99.90;;;;;;5031860;28;20238;-73
2022/04/23 02:34:25;;;;;;;4.30;3.85;;;9.40;99.90;;;;;;5032493;28;20169;-75
2022/04/23 02:36:51;;;;;;;8.48;6.60;;;9.40;99.90;;;;;;5032958;28;20204;-73
2022/04/23 02:39:17;;;;;;;5.67;5.10;;;9.30;99.90;;;;;;5031824;28;20170;-71
2022/04/23 02:41:42;;;;;;;6.83;5.17;;;9.20;99.90;;;;;;5033074;28;20727;-73
2022/04/23 02:44:08;;;;;;;8.17;5.47;;;9.20;99.90;;;;;;5032324;28;20265;-69
2022/04/23 02:46:39;;;;;;;7.37;5.57;;;9.10;99.90;;;;;;5032768;28;20537;-74
2022/04/23 02:49:05;;;;;;;7.72;6.90;;;9.10;99.90;;;;;;5035223;28;20510;-71
2022/04/23 02:51:30;;;;;;;9.17;7.03;;;9.10;99.90;;;;;;5035858;28;20276;-76
2022/04/23 02:53:56;;;;;;;5.80;5.23;;;9.10;99.90;;;;;;5036790;28;20174;-73
2022/04/23 02:56:21;;;;;;;5.70;4.77;;;9.00;99.90;;;;;;5037100;28;20213;-73
2022/04/23 02:58:55;;;;;;;5.00;4.20;;;9.00;99.90;;;;;;5036664;28;20169;-73
2022/04/23 03:01:23;;;;;;;5.90;5.40;;;9.00;99.90;;;;;;5036888;28;20186;-74
2022/04/23 03:03:54;;;;;;;8.20;5.53;;;9.10;99.90;;;;;;5036391;28;20541;-73
2022/04/23 03:06:28;;;;;;;6.60;5.22;;;9.10;99.90;;;;;;5036675;28;20702;-76
2022/04/23 03:08:55;;;;;;;5.22;4.72;;;9.10;99.90;;;;;;5036707;28;20181;-73
2022/04/23 03:11:20;;;;;;;6.28;5.22;;;9.10;99.90;;;;;;5036717;28;20178;-74
2022/04/23 03:13:46;;;;;;;6.10;5.17;;;9.10;99.90;;;;;;5036274;28;20196;-72
2022/04/23 03:16:12;;;;;;;6.00;4.70;;;9.00;99.90;;;;;;5036800;28;20201;-73
2022/04/23 03:18:37;;;;;;;7.50;5.30;;;9.00;99.90;;;;;;5036966;28;20256;-71
2022/04/23 03:21:07;;;;;;;6.57;5.43;;;9.00;99.90;;;;;;5036692;28;20226;-73
2022/04/23 03:23:32;;;;;;;7.25;5.45;;;8.90;99.90;;;;;;5035045;28;20166;-75
2022/04/23 03:25:59;;;;;;;7.77;5.97;;;9.00;99.90;;;;;;5036553;28;20219;-72
2022/04/23 03:28:25;;;;;;;8.73;5.03;;;9.00;99.90;;;;;;5036277;28;20181;-76
2022/04/23 03:30:51;;;;;;;6.37;5.20;;;8.90;99.90;;;;;;5037106;28;20197;-70
2022/04/23 03:33:16;;;;;;;6.50;5.40;;;8.90;99.90;;;;;;5034977;28;20431;-72
2022/04/23 03:35:42;;;;;;;4.73;4.27;;;8.90;99.90;;;;;;5036459;28;20259;-71
2022/04/23 03:38:08;;;;;;;6.18;5.28;;;8.80;99.90;;;;;;5036673;28;20627;-72
2022/04/23 03:40:36;;;;;;;6.50;5.00;;;8.80;99.90;;;;;;5036431;28;20243;-73
2022/04/23 03:43:02;;;;;;;5.82;5.03;;;8.70;99.90;;;;;;5036860;28;20695;-74
2022/04/23 03:45:29;;;;;;;4.90;4.50;;;8.70;99.90;;;;;;5036079;28;20189;-71
2022/04/23 03:47:55;;;;;;;5.90;5.05;;;8.70;99.90;;;;;;5035037;28;20170;-72
2022/04/23 03:50:21;;;;;;;6.60;6.00;;;8.70;99.90;;;;;;5036275;28;20550;-74
2022/04/23 03:52:46;;;;;;;9.83;6.27;;;8.70;99.90;;;;;;5036038;28;20174;-73
2022/04/23 03:55:13;;;;;;;8.77;5.90;;;8.70;99.90;;;;;;5035922;28;20248;-72
2022/04/23 03:57:47;;;;;;;9.52;6.30;;;8.70;99.90;;;;;;5035794;28;20583;-71
2022/04/23 04:00:14;;;;;;;9.20;5.72;;;8.60;99.90;;;;;;5036136;28;20197;-73
2022/04/23 04:02:41;;;;;;;7.68;6.15;;;8.60;99.90;;;;;;5034796;28;20259;-75
2022/04/23 04:05:07;;;;;;;8.40;5.45;;;8.60;99.90;;;;;;5035480;28;20607;-74
2022/04/23 04:07:33;;;;;;;6.32;4.80;;;8.60;99.90;;;;;;5035876;28;20183;-70
2022/04/23 04:10:03;;;;;;;8.17;6.17;;;8.60;99.90;;;;;;5018416;28;20655;-73
2022/04/23 04:12:29;;;;;;;8.93;5.57;;;8.60;99.90;;;;;;5035500;28;20191;-72
2022/04/23 04:14:54;;;;;;;9.70;5.93;;;8.60;99.90;;;;;;5034956;28;20647;-72
2022/04/23 04:17:20;;;;;;;9.80;6.20;;;8.60;99.90;;;;;;5035585;28;20822;-73
2022/04/23 04:19:46;;;;;;;8.80;6.47;;;8.70;99.90;;;;;;5035570;28;20529;-75
2022/04/23 04:22:11;;;;;;;7.47;5.90;;;8.70;99.90;;;;;;5035556;28;20650;-74
2022/04/23 04:24:37;;;;;;;5.90;5.00;;;8.80;99.90;;;;;;5035224;28;20649;-73
2022/04/23 04:27:04;;;;;;;6.27;5.63;;;8.80;99.90;;;;;;5035473;28;20264;-73
2022/04/23 04:29:30;;;;;;;6.00;5.40;;;8.90;99.90;;;;;;5035712;28;20530;-74
2022/04/23 04:31:56;;;;;;;6.60;4.70;;;8.90;99.90;;;;;;5035460;28;20182;-75
2022/04/23 04:34:23;;;;;;;12.18;5.95;;;9.00;99.90;;;;;;5034854;28;20170;-73
2022/04/23 04:36:50;;;;;;;5.90;5.32;;;9.00;99.90;;;;;;5035170;28;20738;-73
2022/04/23 04:39:18;;;;;;;9.65;5.40;;;9.10;99.90;;;;;;5035642;28;20167;-74
2022/04/23 04:41:44;;;;;;;5.93;5.28;;;9.10;99.90;;;;;;5034929;28;20251;-71
2022/04/23 04:44:10;;;;;;;7.40;5.35;;;9.10;99.90;;;;;;5034861;28;20224;-70
2022/04/23 04:46:38;;;;;;;6.18;5.28;;;9.10;99.90;;;;;;5035004;28;20557;-75
2022/04/23 04:49:04;;;;;;;7.90;5.85;;;9.20;99.90;;;;;;5035045;28;20174;-73
2022/04/23 04:51:30;;;;;;;7.97;4.78;;;9.20;99.90;;;;;;5035050;28;20188;-74
2022/04/23 04:53:57;;;;;;;5.07;4.45;;;9.20;99.90;;;;;;5034550;28;20200;-74
2022/04/23 04:56:23;;;;;;;6.85;6.22;;;9.30;99.90;;;;;;5034160;28;20282;-74
2022/04/23 04:58:49;;;;;;;7.38;6.68;;;9.30;99.90;;;;;;5034457;28;20279;-70
2022/04/23 05:01:16;;;;;;;5.07;4.63;;;9.40;99.90;;;;;;5034105;28;20224;-72
2022/04/23 05:03:43;;;;;;;5.57;5.05;;;9.40;99.90;;;;;;5033627;28;20178;-72
2022/04/23 05:06:09;;;;;;;8.70;6.53;;;9.50;99.90;;;;;;5033044;28;20333;-74
2022/04/23 05:08:36;;;;;;;7.22;6.10;;;9.50;99.90;;;;;;5034357;28;20182;-74
2022/04/23 05:11:02;;;;;;;8.32;5.53;;;9.60;99.90;;;;;;5033677;28;20182;-75
2022/04/23 05:13:28;;;;;;;8.43;6.75;;;9.50;99.90;;;;;;5033884;28;20253;-75
2022/04/23 05:15:53;;;;;;;7.57;5.57;;;9.50;99.90;;;;;;5034083;28;20217;-75
2022/04/23 05:18:19;;;;;;;5.93;4.93;;;9.50;99.90;;;;;;5034176;28;20479;-73
2022/04/23 05:20:45;;;;;;;5.20;4.70;;;9.60;99.90;;;;;;5032707;28;20174;-75
2022/04/23 05:23:10;;;;;;;6.77;5.30;;;9.60;99.90;;;;;;5032220;28;20173;-74
2022/04/23 05:25:36;;;;;;;7.13;6.43;;;9.70;99.90;;;;;;5033947;28;20185;-75
2022/04/23 05:28:01;;;;;;;5.63;4.97;;;9.70;99.90;;;;;;5034178;28;20474;-72
2022/04/23 05:30:27;;;;;;;6.43;5.23;;;9.70;99.90;;;;;;5033438;28;20239;-75
2022/04/23 05:32:53;;;;;;;5.53;4.40;;;9.70;99.90;;;;;;5033439;28;20177;-73
2022/04/23 05:35:19;;;;;;;7.10;5.60;;;9.80;99.90;;;;;;5033278;28;20197;-74
2022/04/23 05:37:45;;;;;;;5.63;5.13;;;9.80;99.90;;;;;;5033281;28;20209;-72
2022/04/23 05:40:11;;;;;;;5.20;4.53;;;9.90;99.90;;;;;;5033885;28;20175;-72
2022/04/23 05:42:37;;;;;;;4.93;4.35;;;9.90;99.90;;;;;;5033622;28;20248;-73
2022/04/23 05:45:02;;;;;;;7.50;5.77;;;9.90;99.90;;;;;;5032795;28;20268;-75
2022/04/23 05:47:28;;;;;;;6.30;4.60;;;9.90;99.90;;;;;;5033621;28;20755;-72
2022/04/23 05:49:54;;;;;;;5.00;4.50;;;10.00;99.90;;;;;;5033601;28;20478;-73
2022/04/23 05:52:20;;;;;;;4.90;4.10;;;10.10;99.90;;;;;;5033232;28;20530;-73
2022/04/23 05:54:45;;;;;;;5.47;4.90;;;10.10;99.90;;;;;;5033027;28;20182;-73
2022/04/23 05:57:11;;;;;;;7.83;4.60;;;10.10;99.90;;;;;;5033524;28;20887;-73
2022/04/23 05:59:36;;;;;;;8.13;4.87;;;10.20;99.90;;;;;;5033524;28;20178;-72
2022/04/23 06:02:03;;;;;;;7.17;4.80;;;10.30;99.90;;;;;;5033166;28;20174;-73
2022/04/23 06:04:29;;;;;;;5.72;4.95;;;10.30;99.90;;;;;;5032763;28;20244;-72
2022/04/23 06:06:55;;;;;;;5.18;4.40;;;10.40;99.90;;;;;;5032959;28;20557;-71
2022/04/23 06:09:21;;;;;;;5.05;4.55;;;10.40;99.90;;;;;;5033464;28;20166;-74
2022/04/23 06:11:47;;;;;;;4.53;4.20;;;10.50;99.90;;;;;;5033221;28;20173;-74
2022/04/23 06:14:12;;;;;;;4.60;4.20;;;10.50;99.90;;;;;;5032716;28;20417;-74
2022/04/23 06:16:38;;;;;;;5.27;4.13;;;10.60;99.90;;;;;;5033388;28;20202;-74
2022/04/23 06:19:05;;;;;;;6.83;4.57;;;10.60;99.90;;;;;;5033486;28;20173;-72
2022/04/23 06:21:30;;;;;;;4.72;4.13;;;10.60;99.90;;;;;;5032929;28;20186;-74
2022/04/23 06:23:56;;;;;;;6.00;4.50;;;10.70;99.90;;;;;;5031907;28;20162;-73
2022/04/23 06:26:22;;;;;;;4.63;3.77;;;10.80;99.90;;;;;;5033212;28;20990;-73
2022/04/23 06:28:48;;;;;;;5.50;4.83;;;10.90;99.90;;;;;;5033068;28;20184;-73
2022/04/23 06:31:13;;;;;;;5.37;4.70;;;10.90;99.90;;;;;;5033225;28;20404;-72
2022/04/23 06:33:39;;;;;;;5.23;4.60;;;11.00;99.90;;;;;;5033033;28;20236;-73
2022/04/23 06:36:05;;;;;;;5.00;4.43;;;11.00;99.90;;;;;;5033053;28;20236;-72
2022/04/23 06:38:30;;;;;;;5.23;3.50;;;11.10;99.90;;;;;;5033272;28;20186;-74
2022/04/23 06:40:56;;;;;;;5.20;4.33;;;11.20;99.90;;;;;;5033322;28;20883;-71
2022/04/23 06:43:22;;;;;;;4.27;3.87;;;11.20;99.90;;;;;;5032426;28;20220;-72
2022/04/23 06:45:47;;;;;;;3.97;3.67;;;11.40;99.90;;;;;;5032951;28;20185;-73
2022/04/23 06:48:13;;;;;;;5.57;4.30;;;11.40;99.90;;;;;;5032831;28;20174;-73
2022/04/23 06:50:38;;;;;;;4.47;4.03;;;11.40;99.90;;;;;;5032426;28;20177;-74
2022/04/23 06:53:05;;;;;;;4.20;3.87;;;11.50;99.90;;;;;;5032897;28;20178;-74
2022/04/23 06:55:30;;;;;;;5.30;4.80;;;11.50;99.90;;;;;;5033026;28;20194;-74
2022/04/23 06:57:56;;;;;;;5.80;4.30;;;11.60;99.90;;;;;;5032915;28;20579;-72
2022/04/23 07:00:23;;;;;;;5.60;3.67;;;11.60;99.90;;;;;;5033191;28;20402;-71
2022/04/23 07:02:50;;;;;;;4.07;3.42;;;11.70;99.90;;;;;;5032763;28;20197;-74
2022/04/23 07:05:16;;;;;;;3.85;3.55;;;11.80;99.90;;;;;;5032456;28;20225;-72
2022/04/23 07:07:52;;;;;;;3.65;3.35;;;11.80;99.90;;;;;;5032602;28;20172;-73
2022/04/23 07:10:18;;;;;;;3.40;3.10;;;11.80;99.90;;;;;;5032345;28;20181;-75
2022/04/23 07:12:44;;;;;;;4.63;4.20;;;11.90;99.90;;;;;;5030984;28;20170;-72
2022/04/23 07:15:09;;;;;;;4.30;3.47;;;12.00;99.90;;;;;;5032135;28;20661;-73
2022/04/23 07:17:35;;;;;;;4.53;3.20;;;12.10;99.90;;;;;;5032619;28;20231;-70
2022/04/23 07:20:01;;;;;;;4.17;3.60;;;12.10;99.90;;;;;;5032046;28;20413;-71
2022/04/23 07:22:26;;;;;;;3.20;2.80;;;12.10;99.90;;;;;;5032761;28;20166;-72
2022/04/23 07:24:53;;;;;;;3.43;2.73;;;12.20;99.90;;;;;;5031803;28;20164;-73
2022/04/23 07:27:18;;;;;;;4.25;3.40;;;12.40;99.90;;;;;;5032163;28;20619;-72
2022/04/23 07:29:44;;;;;;;2.97;2.77;;;12.40;99.90;;;;;;5032702;28;20205;-73
2022/04/23 07:32:09;;;;;;;3.90;3.47;;;12.50;99.90;;;;;;5032092;28;20183;-73
2022/04/23 07:37:31;;;;;;;4.07;3.27;;;12.60;99.90;;;;;;5036400;28;20211;-73
2022/04/23 07:40:05;;;;;;;3.90;3.43;;;12.70;99.90;;;;;;5036180;28;20452;-73
2022/04/23 07:42:31;;;;;;;3.77;3.43;;;12.80;99.90;;;;;;5035942;28;20403;-73
2022/04/23 07:44:58;;;;;;;5.30;3.10;;;12.90;99.90;;;;;;5035503;28;20413;-73
2022/04/23 07:47:23;;;;;;;4.20;3.00;;;13.00;99.90;;;;;;5035567;28;20909;-75
2022/04/23 07:49:49;;;;;;;3.70;2.97;;;13.10;99.90;;;;;;5035803;28;20518;-74
2022/04/23 07:52:16;;;;;;;3.47;3.17;;;13.20;99.90;;;;;;5035835;28;20223;-75
2022/04/23 07:54:43;;;;;;;3.07;2.77;;;13.40;99.90;;;;;;5035585;28;20619;-71
2022/04/23 07:57:10;;;;;;;4.10;3.70;;;13.50;99.90;;;;;;5036084;28;20965;-74
2022/04/23 07:59:41;;;;;;;2.83;2.63;;;13.70;99.90;;;;;;5036085;28;20412;-73
2022/04/23 08:02:06;;;;;;;4.10;3.17;;;13.80;99.90;;;;;;5035575;28;20420;-73
2022/04/23 08:04:32;;;;;;;2.60;2.40;;;13.90;99.90;;;;;;5035412;28;20442;-74
2022/04/23 08:06:57;;;;;;;3.57;2.87;;;13.80;99.90;;;;;;5035836;28;20531;-74
2022/04/23 08:09:23;;;;;;;3.67;2.83;;;14.00;99.90;;;;;;5036042;28;20209;-71
2022/04/23 08:11:49;;;;;;;3.40;3.10;;;14.10;99.50;;;;;;5035852;28;20174;-73
2022/04/23 08:14:14;;;;;;;4.20;3.60;;;14.10;99.10;;;;;;5034132;28;20591;-70
2022/04/23 08:16:41;;;;;;;3.17;2.80;;;14.00;99.10;;;;;;5035325;28;20202;-72
2022/04/23 08:19:08;;;;;;;4.40;3.93;;;13.90;99.20;;;;;;5035713;28;20177;-73
2022/04/23 08:21:34;;;;;;;4.30;3.50;;;13.70;99.40;;;;;;5035575;28;20408;-74
2022/04/23 08:24:00;;;;;;;3.67;3.47;;;13.50;99.50;;;;;;5035365;28;20459;-73
2022/04/23 08:26:26;;;;;;;4.00;2.77;;;13.50;99.80;;;;;;5035320;28;20439;-73
2022/04/23 08:31:36;;;;;;;3.73;3.20;;;13.50;99.90;;;;;;5035424;28;20172;-71
2022/04/23 08:34:02;;;;;;;4.07;3.73;;;13.40;99.90;;;;;;5035089;28;20917;-75
2022/04/23 08:36:36;;;;;;;3.53;3.23;;;13.40;99.90;;;;;;5035192;28;20449;-72
2022/04/23 08:39:06;;;;;;;3.23;3.03;;;13.40;99.90;;;;;;5035343;28;20408;-70
2022/04/23 08:41:35;;;;;;;5.60;4.00;;;13.40;99.90;;;;;;5035492;28;20403;-72
2022/04/23 08:44:06;;;;;;;3.00;2.53;;;13.40;99.90;;;;;;5036476;28;20400;-73
2022/04/23 08:46:33;;;;;;;3.93;3.40;;;13.40;99.90;;;;;;5034584;28;20435;-71
2022/04/23 08:49:14;;;;;;;3.63;3.27;;;13.40;99.90;;;;;;5036380;28;20514;-73
2022/04/23 08:51:41;;;;;;;3.13;2.70;;;13.40;99.80;;;;;;5037838;28;20524;-73
2022/04/23 08:54:12;;;;;;;3.80;2.67;;;13.50;99.90;;;;;;5035750;28;20418;-75
2022/04/23 08:56:40;;;;;;;5.00;3.20;;;13.50;99.80;;;;;;5035248;28;20456;-74
2022/04/23 08:59:07;;;;;;;3.33;3.03;;;13.60;99.60;;;;;;5036094;28;20398;-73
2022/04/23 09:01:37;;;;;;;6.30;3.43;;;13.60;99.40;;;;;;5034274;28;20408;-76
2022/04/23 09:04:04;;;;;;;4.47;3.20;;;13.70;99.30;;;;;;5034244;28;20470;-73
2022/04/23 09:06:44;;;;;;;2.70;2.50;;;13.70;99.10;;;;;;5035140;28;20514;-75
2022/04/23 09:09:15;;;;;;;4.50;3.10;;;13.80;99.00;;;;;;5034776;28;20412;-73
2022/04/23 09:11:44;;;;;;;3.67;2.73;;;13.90;98.80;;;;;;5032999;28;20929;-74
2022/04/23 09:14:28;;;;;;;3.03;2.70;;;14.00;98.70;;;;;;5032563;28;20462;-72
2022/04/23 09:25:37;;;;;;;3.30;3.00;;;14.10;98.40;;;;;;5034142;28;20406;-74
2022/04/23 09:28:14;;;;;;;5.17;2.73;;;14.10;98.30;;;;;;5034427;28;20966;-72
2022/04/23 09:30:39;;;;;;;3.90;3.07;;;14.20;98.20;;;;;;5034031;28;20420;-75
2022/04/23 09:33:05;;;;;;;2.53;2.33;;;14.20;97.90;;;;;;5033831;28;20419;-72
2022/04/23 09:35:31;;;;;;;2.63;2.43;;;14.10;98.00;;;;;;5034043;28;20201;-73
2022/04/23 09:38:13;;;;;;;3.33;3.00;;;14.00;98.00;;;;;;5033678;28;20213;-75
2022/04/23 09:40:39;;;;;;;2.43;2.33;;;14.00;98.20;;;;;;5034286;28;20173;-72
2022/04/23 09:43:07;;;;;;;4.33;2.97;;;14.00;98.20;;;;;;5034030;28;20957;-72
2022/04/23 09:45:36;;;;;;;5.00;3.53;;;14.10;98.20;;;;;;5033494;28;20200;-75
2022/04/23 09:48:04;;;;;;;2.53;2.40;;;14.20;98.30;;;;;;5033942;28;20885;-74
2022/04/23 09:50:41;;;;;;;2.60;2.40;;;14.30;98.20;;;;;;5033835;28;20403;-74
2022/04/23 09:53:17;;;;;;;2.93;2.73;;;14.40;97.90;;;;;;5033721;28;20411;-72
2022/04/23 09:55:43;;;;;;;2.27;2.07;;;14.30;97.50;;;;;;5033525;28;20443;-73
2022/04/23 09:58:10;;;;;;;2.60;2.40;;;14.20;97.60;;;;;;5033627;28;20463;-74
2022/04/23 10:00:37;;;;;;;2.97;2.57;;;14.20;97.70;;;;;;5034413;28;20413;-72
2022/04/23 10:03:07;;;;;;;3.23;2.97;;;14.30;97.50;;;;;;5033562;28;20430;-74
2022/04/23 10:05:39;;;;;;;2.47;2.27;;;14.30;97.70;;;;;;5033585;28;20409;-73
2022/04/23 10:08:11;;;;;;;2.50;2.30;;;14.40;97.90;;;;;;5033532;28;20404;-74
2022/04/23 10:10:48;;;;;;;3.07;2.57;;;14.40;97.60;;;;;;5033478;28;20398;-74
2022/04/23 10:13:16;;;;;;;4.10;3.30;;;14.60;97.50;;;;;;5033114;28;20411;-72
2022/04/23 10:15:45;;;;;;;2.60;2.40;;;14.70;97.20;;;;;;5033597;28;20436;-76
2022/04/23 10:18:12;;;;;;;3.97;2.63;;;14.60;97.20;;;;;;5032268;28;20483;-71
2022/04/23 10:20:52;;;;;;;4.10;3.00;;;14.70;97.30;;;;;;5033499;28;20425;-73
2022/04/23 10:23:22;;;;;;;2.70;2.50;;;14.70;96.90;;;;;;5032648;28;20410;-74
2022/04/23 10:25:53;;;;;;;2.90;2.50;;;14.70;97.10;;;;;;5012318;28;20417;-74
2022/04/23 10:28:19;;;;;;;2.67;2.43;;;14.80;97.10;;;;;;5013891;28;20439;-72
2022/04/23 10:30:46;;;;;;;3.20;2.77;;;14.80;97.00;;;;;;5013459;28;20433;-74
2022/04/23 10:33:26;;;;;;;2.80;2.50;;;15.00;97.00;;;;;;5013184;28;20406;-71
2022/04/23 10:36:10;;;;;;;3.73;3.40;;;15.20;96.50;;;;;;5013599;28;20428;-71
2022/04/23 10:38:38;;;;;;;3.30;3.00;;;15.30;96.00;;;;;;5018251;28;20419;-73
2022/04/23 10:41:05;;;;;;;3.07;2.77;;;15.30;96.00;;;;;;5033107;28;20423;-73
2022/04/23 10:43:31;;;;;;;3.70;3.13;;;15.20;96.00;;;;;;5032790;28;20407;-71
2022/04/23 10:45:59;;;;;;;3.73;2.60;;;15.30;96.00;;;;;;5033143;28;20496;-73
2022/04/23 10:48:26;;;;;;;2.93;2.73;;;15.30;96.00;;;;;;5032787;28;20367;-74
2022/04/23 10:51:05;;;;;;;3.10;2.80;;;15.40;95.60;;;;;;5032815;28;20404;-75
2022/04/23 10:53:37;;;;;;;3.17;2.77;;;15.50;95.80;;;;;;5031179;28;20420;-72
2022/04/23 10:56:07;;;;;;;3.20;2.77;;;15.70;95.40;;;;;;5032559;28;20503;-72
2022/04/23 10:58:33;;;;;;;4.17;2.27;;;15.70;95.60;;;;;;5032873;28;20455;-73
2022/04/23 11:01:22;;;;;;;3.90;3.60;;;15.80;95.60;;;;;;5032837;28;20400;-74
2022/04/23 11:03:56;;;;;;;3.10;2.80;;;15.80;95.20;;;;;;5032494;28;20598;-74
2022/04/23 11:12:22;;;;;;;3.00;2.67;;;15.80;95.20;;;;;;5036710;28;20437;-72
2022/04/23 11:14:53;;;;;;;3.13;2.70;;;15.80;95.00;;;;;;5036028;28;20764;-75
2022/04/23 11:17:40;;;;;;;3.90;3.60;;;15.70;95.50;;;;;;5036682;28;20942;-72
2022/04/23 11:20:06;;;;;;;3.90;3.60;;;15.60;95.40;;;;;;5036762;28;20408;-73
2022/04/23 11:22:32;;;;;;;4.50;3.17;;;15.50;95.50;;;;;;5036420;28;20400;-71
2022/04/23 11:24:59;;;;;;;3.73;3.43;;;15.40;95.50;;;;;;5036094;28;20395;-74
2022/04/23 11:27:26;;;;;;;3.33;2.80;;;15.40;95.70;;;;;;5036738;28;20813;-72
2022/04/23 11:29:52;;;;;;;3.60;3.30;;;15.50;95.70;;;;;;5036655;28;20459;-73
2022/04/23 11:32:28;;;;;;;5.10;3.70;;;15.50;95.70;;;;;;5036101;28;20491;-73
2022/04/23 11:35:03;;;;;;;3.50;3.20;;;15.50;95.50;;;;;;5036220;28;20757;-74
2022/04/23 11:37:38;;;;;;;3.13;2.90;;;15.60;95.70;;;;;;5036084;28;20463;-74
2022/04/23 11:40:08;;;;;;;2.87;2.67;;;15.60;95.50;;;;;;5035035;28;20423;-75
2022/04/23 11:42:41;;;;;;;5.87;3.30;;;15.60;95.30;;;;;;5036483;28;20412;-70
2022/04/23 11:45:09;;;;;;;3.53;3.00;;;15.50;95.50;;;;;;5035983;28;20429;-73
2022/04/23 11:47:35;;;;;;;3.70;3.07;;;15.40;95.80;;;;;;5036434;28;20447;-71
2022/04/23 11:50:10;;;;;;;3.03;2.70;;;15.50;95.70;;;;;;5036365;28;20383;-75
2022/04/23 11:52:37;;;;;;;4.37;3.70;;;15.70;95.50;;;;;;5036126;28;20428;-76
2022/04/23 11:55:03;;;;;;;3.40;2.70;;;15.80;95.30;;;;;;5035955;28;20775;-75
2022/04/23 11:57:28;;;;;;;3.10;2.90;;;15.80;95.10;;;;;;5036280;28;20524;-72
2022/04/23 11:59:59;;;;;;;4.13;3.73;;;15.90;95.10;;;;;;5036245;28;20499;-74
2022/04/23 12:02:30;;;;;;;3.53;3.23;;;16.00;95.30;;;;;;5035856;28;20419;-74
2022/04/23 12:04:58;;;;;;;4.77;4.30;;;16.10;94.80;;;;;;5035432;28;20445;-72
2022/04/23 12:07:25;;;;;;;3.50;3.20;;;16.20;94.70;;;;;;5035765;28;20416;-73
2022/04/23 12:09:51;;;;;;;3.23;2.93;;;16.30;94.50;;;;;;5036038;28;20407;-73
2022/04/23 12:12:21;;;;;;;3.40;3.10;;;16.50;94.00;;;;;;5035947;28;20842;-73
2022/04/23 12:14:49;;;;;;;3.47;3.10;;;16.50;94.00;;;;;;5034244;28;20905;-74
2022/04/23 12:17:29;;;;;;;3.33;2.97;;;16.60;94.20;;;;;;5035767;28;20496;-72
2022/04/23 12:19:57;;;;;;;3.30;2.90;;;16.70;93.70;;;;;;5035312;28;20847;-71
2022/04/23 12:22:32;;;;;;;4.20;3.90;;;16.60;93.60;;;;;;5034661;28;20408;-73
2022/04/23 12:25:18;;;;;;;5.43;3.30;;;16.60;94.10;;;;;;5035079;28;20429;-73
2022/04/23 12:42:12;;;;;;;4.67;3.77;;;17.00;93.40;;;;;;5035386;28;20416;-72
2022/04/23 12:44:45;;;;;;;4.90;4.40;;;17.00;93.40;;;;;;5034859;28;20402;-74
2022/04/23 12:47:18;;;;;;;5.40;4.33;;;17.00;93.10;;;;;;5035324;28;20410;-72
2022/04/23 12:49:57;;;;;;;3.50;2.97;;;16.90;93.30;;;;;;5034757;28;20509;-72
2022/04/23 12:52:37;;;;;;;4.10;3.70;;;16.80;93.20;;;;;;5035208;28;20402;-74
2022/04/23 12:55:25;;;;;;;6.13;3.30;;;16.80;93.30;;;;;;5034586;28;20454;-74
2022/04/23 12:57:53;;;;;;;3.23;3.00;;;16.70;93.20;;;;;;5034791;28;20449;-73
2022/04/23 13:00:20;;;;;;;4.13;3.50;;;16.60;93.50;;;;;;5034729;28;20398;-73
2022/04/23 13:02:50;;;;;;;4.80;4.37;;;16.60;93.60;;;;;;5034377;28;20463;-74
2022/04/23 13:05:16;;;;;;;3.90;3.60;;;16.60;93.80;;;;;;5034106;28;20448;-74
2022/04/23 13:10:27;;;;;;;5.00;4.50;;;16.50;93.90;;;;;;5034815;28;20471;-74
2022/04/23 13:12:54;;;;;;;3.97;3.60;;;16.40;93.90;;;;;;5034716;28;20738;-74
2022/04/23 13:15:20;;;;;;;4.20;3.80;;;16.30;94.00;;;;;;5034294;28;20434;-73
2022/04/23 13:17:47;;;;;;;4.83;4.37;;;16.30;94.20;;;;;;5034771;28;21017;-73
2022/04/23 13:20:14;;;;;;;4.40;4.00;;;16.40;93.70;;;;;;5034201;28;20175;-71
2022/04/23 13:22:41;;;;;;;5.50;5.00;;;16.40;93.80;;;;;;5034664;28;20377;-72
2022/04/23 13:25:07;;;;;;;4.00;3.70;;;16.40;93.90;;;;;;5032947;28;20465;-72
2022/04/23 13:27:33;;;;;;;3.93;3.33;;;16.40;93.80;;;;;;5034624;28;20412;-74
2022/04/23 13:29:59;;;;;;;4.70;4.27;;;16.40;94.30;;;;;;5034361;28;20406;-73
2022/04/23 13:32:25;;;;;;;4.97;4.50;;;16.40;94.00;;;;;;5033758;28;20193;-73
2022/04/23 13:34:51;;;;;;;5.47;4.67;;;16.30;94.00;;;;;;5032256;28;20421;-72